createdAt,value
2019-03-28T00:01:07.404Z,1.41
2019-03-28T00:06:04.384Z,1.49
2019-03-28T00:11:01.401Z,1.50
2019-03-28T00:15:58.419Z,1.59
2019-03-28T00:20:55.894Z,1.64
2019-03-28T00:25:52.963Z,1.77
2019-03-28T00:30:50.076Z,1.80
2019-03-28T00:35:47.140Z,1.76
2019-03-28T00:40:44.282Z,1.98
2019-03-28T00:45:44.409Z,1.97
2019-03-28T00:50:40.233Z,2.14
2019-03-28T00:55:37.414Z,2.38
2019-03-28T01:00:35.018Z,2.10
2019-03-28T01:05:32.054Z,2.12
2019-03-28T01:10:32.109Z,2.10
2019-03-28T01:15:29.095Z,2.23
2019-03-28T01:20:26.495Z,2.47
2019-03-28T01:25:23.491Z,2.51
2019-03-28T01:30:20.551Z,2.76
2019-03-28T01:35:17.603Z,2.80
2019-03-28T01:40:14.602Z,2.89
2019-03-28T01:45:11.745Z,3.07
2019-03-28T01:50:09.088Z,3.24
2019-03-28T01:55:06.804Z,3.45
2019-03-28T02:00:09.321Z,3.63
2019-03-28T02:05:06.989Z,3.63
2019-03-28T02:10:05.850Z,3.58
2019-03-28T02:15:06.196Z,3.66
2019-03-28T02:20:06.665Z,3.87
2019-03-28T02:25:06.752Z,4.00
2019-03-28T02:30:07.170Z,4.15
2019-03-28T02:35:04.998Z,4.21
2019-03-28T02:40:03.301Z,4.19
2019-03-28T02:45:00.664Z,4.52
2019-03-28T02:49:57.716Z,4.57
2019-03-28T02:54:54.822Z,4.66
2019-03-28T02:59:52.379Z,4.70
2019-03-28T03:04:49.495Z,4.75
2019-03-28T03:09:46.617Z,4.78
2019-03-28T03:14:45.891Z,4.90
2019-03-28T03:19:42.934Z,4.92
2019-03-28T03:24:41.846Z,4.99
2019-03-28T03:29:38.955Z,5.00
2019-03-28T03:34:35.998Z,4.99
2019-03-28T03:39:33.102Z,4.96
2019-03-28T03:44:30.181Z,5.00
2019-03-28T03:49:27.257Z,5.01
2019-03-28T03:54:24.345Z,4.76
2019-03-28T03:59:22.490Z,4.71
2019-03-28T04:04:19.610Z,4.73
2019-03-28T04:09:17.533Z,4.82
2019-03-28T04:14:14.732Z,4.92
2019-03-28T04:19:12.077Z,4.99
2019-03-28T04:24:11.008Z,5.09
2019-03-28T04:29:10.233Z,5.24
2019-03-28T04:34:08.817Z,5.00
2019-03-28T04:39:06.333Z,4.94
2019-03-28T04:44:04.540Z,5.04
2019-03-28T04:49:01.714Z,5.09
2019-03-28T04:53:59.013Z,5.25
2019-03-28T04:59:00.271Z,5.44
2019-03-28T05:03:57.541Z,5.47
2019-03-28T05:08:54.837Z,5.72
2019-03-28T05:13:53.937Z,5.63
2019-03-28T05:18:52.486Z,5.69
2019-03-28T05:23:52.587Z,5.86
2019-03-28T05:28:57.406Z,5.96
2019-03-28T05:33:48.672Z,6.14
2019-03-28T05:38:46.280Z,6.33
2019-03-28T05:43:45.498Z,6.62
2019-03-28T05:48:43.415Z,6.76
2019-03-28T05:53:40.509Z,6.76
2019-03-28T05:58:38.152Z,6.96
2019-03-28T06:03:36.091Z,7.24
2019-03-28T06:08:33.211Z,7.33
2019-03-28T06:13:33.253Z,7.44
2019-03-28T06:18:33.212Z,7.64
2019-03-28T06:23:30.340Z,7.68
2019-03-28T06:28:27.436Z,7.94
2019-03-28T06:33:24.596Z,7.99
2019-03-28T06:38:21.861Z,8.11
2019-03-28T06:43:20.994Z,8.45
2019-03-28T06:48:20.597Z,8.44
2019-03-28T06:53:17.644Z,8.52
2019-03-28T06:58:21.128Z,8.59
2019-03-28T07:03:20.061Z,8.51
2019-03-28T07:08:17.471Z,8.72
2019-03-28T07:13:16.332Z,9.00
2019-03-28T07:18:13.347Z,9.16
2019-03-28T07:23:16.515Z,9.04
2019-03-28T07:28:13.753Z,9.23
2019-03-28T07:33:10.897Z,9.40
2019-03-28T07:38:08.673Z,9.39
2019-03-28T07:43:08.372Z,9.73
2019-03-28T07:48:05.742Z,9.75
2019-03-28T07:53:04.813Z,9.77
2019-03-28T07:58:01.958Z,9.69
2019-03-28T08:03:03.597Z,9.64
2019-03-28T08:07:58.153Z,9.61
2019-03-28T08:12:55.269Z,9.52
2019-03-28T08:17:52.311Z,9.54
2019-03-28T08:22:49.872Z,9.72
2019-03-28T08:27:48.263Z,9.96
2019-03-28T08:32:47.951Z,10.02
2019-03-28T08:37:45.301Z,10.07
2019-03-28T08:42:42.461Z,9.77
2019-03-28T08:47:39.527Z,9.47
2019-03-28T08:52:38.773Z,9.08
2019-03-28T08:57:37.733Z,8.97
2019-03-28T09:02:38.072Z,8.87
2019-03-28T09:07:41.622Z,8.78
2019-03-28T09:12:38.936Z,8.86
2019-03-28T09:17:36.130Z,8.70
2019-03-28T09:22:38.916Z,8.76
2019-03-28T09:27:41.318Z,8.82
2019-03-28T09:32:38.638Z,8.87
2019-03-28T09:37:35.722Z,8.84
2019-03-28T09:42:32.899Z,8.79
2019-03-28T09:47:31.205Z,8.82
2019-03-28T09:52:30.336Z,8.67
2019-03-28T09:57:27.640Z,8.98
2019-03-28T10:02:26.650Z,8.85
2019-03-28T10:07:25.727Z,8.92
2019-03-28T10:12:24.758Z,8.99
2019-03-28T10:17:59.202Z,9.03
2019-03-28T10:23:28.131Z,9.13
2019-03-28T10:28:34.612Z,8.98
2019-03-28T10:33:33.180Z,8.90
2019-03-28T10:38:30.356Z,8.84
2019-03-28T10:43:30.147Z,8.86
2019-03-28T10:48:27.517Z,8.86
2019-03-28T10:53:29.839Z,8.92
2019-03-28T10:58:26.719Z,8.98
2019-03-28T11:03:24.819Z,9.00
2019-03-28T11:08:22.031Z,8.90
2019-03-28T11:13:19.244Z,9.00
2019-03-28T11:18:17.235Z,9.10
2019-03-28T11:23:25.542Z,8.97
2019-03-28T11:28:23.520Z,9.05
2019-03-28T11:33:26.141Z,8.82
2019-03-28T11:38:29.675Z,8.77
2019-03-28T11:49:24.491Z,9.08
2019-03-28T11:54:41.514Z,9.01
2019-03-28T11:59:40.528Z,9.24
2019-03-28T12:04:38.857Z,9.23
2019-03-28T12:09:36.041Z,9.18
2019-03-28T12:14:38.657Z,9.43
2019-03-28T12:19:42.851Z,9.33
2019-03-28T12:24:40.015Z,9.38
2019-03-28T12:29:36.990Z,9.34
2019-03-28T12:34:37.357Z,9.43
2019-03-28T12:39:35.227Z,9.35
2019-03-28T12:44:32.489Z,9.23
2019-03-28T12:49:29.607Z,9.50
2019-03-28T12:54:26.797Z,9.60
2019-03-28T12:59:23.898Z,9.50
2019-03-28T13:04:21.321Z,9.38
2019-03-28T13:09:18.314Z,9.57
2019-03-28T13:14:15.393Z,9.84
2019-03-28T13:19:17.431Z,10.12
2019-03-28T13:24:14.550Z,10.41
2019-03-28T13:29:14.252Z,10.65
2019-03-28T13:34:14.437Z,10.79
2019-03-28T13:39:11.547Z,11.07
2019-03-28T13:44:12.254Z,11.40
2019-03-28T13:49:08.867Z,11.33
2019-03-28T13:54:06.148Z,11.29
2019-03-28T13:59:03.885Z,11.29
2019-03-28T14:04:02.793Z,11.46
2019-03-28T14:09:01.814Z,11.47
2019-03-28T14:14:03.869Z,11.60
2019-03-28T14:19:05.188Z,11.59
2019-03-28T14:24:17.039Z,11.58
2019-03-28T14:29:14.175Z,11.64
2019-03-28T14:34:13.105Z,11.79
2019-03-28T14:39:10.213Z,11.96
2019-03-28T14:44:07.351Z,11.85
2019-03-28T14:49:05.540Z,11.87
2019-03-28T14:54:02.621Z,11.81
2019-03-28T14:59:00.471Z,11.80
2019-03-28T15:04:00.285Z,11.76
2019-03-28T15:08:57.755Z,11.74
2019-03-28T15:13:54.767Z,11.62
2019-03-28T15:18:53.000Z,11.70
2019-03-28T15:23:50.020Z,12.18
2019-03-28T15:28:47.084Z,12.27
2019-03-28T15:33:44.133Z,12.02
2019-03-28T15:38:41.279Z,11.82
2019-03-28T15:43:38.349Z,11.68
2019-03-28T15:48:35.685Z,11.79
2019-03-28T15:53:33.256Z,11.87
2019-03-28T15:58:32.573Z,11.80
2019-03-28T16:03:29.684Z,11.69
2019-03-28T16:08:27.784Z,11.65
2019-03-28T16:13:25.129Z,11.59
2019-03-28T16:18:22.198Z,11.24
2019-03-28T16:23:19.307Z,11.10
2019-03-28T16:28:16.442Z,10.82
2019-03-28T16:33:13.469Z,10.66
2019-03-28T16:38:10.743Z,10.65
2019-03-28T16:43:07.813Z,10.61
2019-03-28T16:48:04.904Z,10.54
2019-03-28T16:53:01.985Z,10.40
2019-03-28T16:57:59.147Z,10.25
2019-03-28T17:02:56.177Z,10.11
2019-03-28T17:07:53.481Z,9.95
2019-03-28T17:12:50.486Z,9.77
2019-03-28T17:17:47.602Z,9.60
2019-03-28T17:22:44.572Z,9.39
2019-03-28T17:27:41.719Z,9.26
2019-03-28T17:32:38.881Z,9.04
2019-03-28T17:37:36.417Z,8.67
2019-03-28T17:42:33.790Z,8.58
2019-03-28T17:47:30.868Z,8.49
2019-03-28T17:52:28.027Z,8.42
2019-03-28T17:57:25.090Z,8.30
2019-03-28T18:02:22.152Z,8.20
2019-03-28T18:07:19.326Z,8.03
2019-03-28T18:12:16.363Z,7.86
2019-03-28T18:17:13.450Z,7.80
2019-03-28T18:22:10.400Z,7.50
2019-03-28T18:27:07.483Z,7.43
2019-03-28T18:32:04.488Z,7.21
2019-03-28T18:37:08.708Z,7.11
2019-03-28T18:42:05.699Z,6.96
2019-03-28T18:47:02.844Z,6.74
2019-03-28T18:51:59.930Z,6.66
2019-03-28T18:56:57.038Z,6.54
2019-03-28T19:01:54.135Z,6.36
2019-03-28T19:06:52.610Z,6.30
2019-03-28T19:11:49.657Z,6.12
2019-03-28T19:16:48.311Z,6.01
2019-03-28T19:21:45.584Z,5.95
2019-03-28T19:26:42.877Z,5.78
2019-03-28T19:31:40.129Z,5.65
2019-03-28T19:36:37.560Z,5.64
2019-03-28T19:41:34.627Z,5.44
2019-03-28T19:46:32.207Z,5.35
2019-03-28T19:51:29.787Z,5.39
2019-03-28T19:56:26.969Z,5.20
2019-03-28T20:01:24.105Z,4.96
2019-03-28T20:06:22.688Z,4.99
2019-03-28T20:11:20.785Z,5.03
2019-03-28T20:16:17.930Z,4.92
2019-03-28T20:21:15.057Z,4.94
2019-03-28T20:26:12.475Z,4.98
2019-03-28T20:31:09.633Z,5.06
2019-03-28T20:36:35.511Z,4.96
2019-03-28T20:41:05.585Z,4.92
2019-03-28T20:46:02.980Z,4.82
2019-03-28T20:51:03.294Z,4.89
2019-03-28T20:55:59.155Z,4.80
2019-03-28T21:00:56.137Z,4.82
2019-03-28T21:05:53.251Z,4.92
2019-03-28T21:10:50.317Z,5.01
2019-03-28T21:15:48.668Z,5.11
2019-03-28T21:20:45.645Z,5.13
2019-03-28T21:25:42.682Z,5.14
2019-03-28T21:30:47.138Z,5.20
2019-03-28T21:35:39.206Z,5.20
2019-03-28T21:40:36.613Z,5.29
2019-03-28T21:45:34.169Z,5.20
2019-03-28T21:50:31.248Z,5.19
2019-03-28T21:55:28.378Z,5.23
2019-03-28T22:00:25.537Z,4.87
2019-03-28T22:05:22.662Z,4.94
2019-03-28T22:10:19.698Z,4.85
2019-03-28T22:15:16.737Z,4.70
2019-03-28T22:20:15.137Z,4.84
2019-03-28T22:25:12.123Z,4.96
2019-03-28T22:30:09.619Z,5.05
2019-03-28T22:35:06.893Z,5.14
2019-03-28T22:40:06.574Z,5.13
2019-03-28T22:45:07.074Z,5.31
2019-03-28T22:50:07.154Z,5.12
2019-03-28T22:55:08.057Z,5.25
2019-03-28T23:00:09.149Z,5.25
2019-03-28T23:05:07.355Z,5.28
2019-03-28T23:10:07.222Z,4.97
2019-03-28T23:15:06.735Z,5.15
2019-03-28T23:20:07.866Z,5.19
2019-03-28T23:25:05.595Z,5.21
2019-03-28T23:30:05.861Z,5.15
2019-03-28T23:35:03.567Z,4.93
2019-03-28T23:40:00.635Z,5.14
2019-03-28T23:44:58.251Z,5.16
2019-03-28T23:49:55.321Z,5.18
2019-03-28T23:54:52.808Z,5.16
2019-03-28T23:59:49.937Z,5.24
